Terminal Aerodrome Forecast
Issued by NWS Louisville, KY

Home | Current Version | Previous Version | Text Only | Print | Product List | Glossary On
Versions: 1 2 3 4 5 6 7 8 9 10 11 12
000
FTUS43 KLMK 101120
TAFBWG
TAF
KBWG 101120Z 1012/1112 22008KT P6SM SCT110
     FM101600 22014G23KT P6SM BKN200
     FM102300 22007KT P6SM SCT250
     FM110500 VRB03KT P6SM SCT250=

USA.gov is the U.S. government's official web portal to all federal, state and local government web resources and services.